sensor_id;sensor_type;location;lat;lon;timestamp;pressure;altitude;pressure_sealevel;temperature;humidity
39265;BME280;42646;51.910;7.724;2022-11-15T00:02:46;100386.22;;;8.85;91.86
39265;BME280;42646;51.910;7.724;2022-11-15T00:05:34;100384.25;;;8.87;92.00
39265;BME280;42646;51.910;7.724;2022-11-15T00:08:22;100383.13;;;8.89;92.28
39265;BME280;42646;51.910;7.724;2022-11-15T00:11:11;100373.41;;;8.90;92.56
39265;BME280;42646;51.910;7.724;2022-11-15T00:13:58;100365.28;;;8.91;92.47
39265;BME280;42646;51.910;7.724;2022-11-15T00:16:47;100369.63;;;8.92;92.59
39265;BME280;42646;51.910;7.724;2022-11-15T00:19:33;100353.56;;;8.94;92.43
39265;BME280;42646;51.910;7.724;2022-11-15T00:22:19;100357.06;;;8.94;92.79
39265;BME280;42646;51.910;7.724;2022-11-15T00:25:07;100356.94;;;8.96;92.53
39265;BME280;42646;51.910;7.724;2022-11-15T00:27:55;100354.97;;;8.98;92.42
39265;BME280;42646;51.910;7.724;2022-11-15T00:30:43;100356.66;;;8.99;92.36
39265;BME280;42646;51.910;7.724;2022-11-15T00:33:29;100362.66;;;9.01;92.25
39265;BME280;42646;51.910;7.724;2022-11-15T00:36:17;100359.06;;;9.02;92.40
39265;BME280;42646;51.910;7.724;2022-11-15T00:39:03;100346.63;;;9.02;92.27
39265;BME280;42646;51.910;7.724;2022-11-15T00:41:54;100347.47;;;9.03;92.17
39265;BME280;42646;51.910;7.724;2022-11-15T00:44:40;100349.13;;;9.04;92.22
39265;BME280;42646;51.910;7.724;2022-11-15T00:47:28;100341.03;;;9.05;92.33
39265;BME280;42646;51.910;7.724;2022-11-15T00:50:14;100336.44;;;9.07;92.36
39265;BME280;42646;51.910;7.724;2022-11-15T00:53:00;100336.28;;;9.09;92.36
39265;BME280;42646;51.910;7.724;2022-11-15T00:55:47;100338.13;;;9.08;92.79
39265;BME280;42646;51.910;7.724;2022-11-15T00:58:35;100337.00;;;9.11;92.46
39265;BME280;42646;51.910;7.724;2022-11-15T01:01:23;100333.34;;;9.12;93.02
39265;BME280;42646;51.910;7.724;2022-11-15T01:04:10;100321.78;;;9.13;93.42
39265;BME280;42646;51.910;7.724;2022-11-15T01:06:56;100318.84;;;9.16;93.10
39265;BME280;42646;51.910;7.724;2022-11-15T01:09:43;100321.34;;;9.18;93.52
39265;BME280;42646;51.910;7.724;2022-11-15T01:12:29;100315.94;;;9.19;93.63
39265;BME280;42646;51.910;7.724;2022-11-15T01:15:18;100319.28;;;9.21;93.72
39265;BME280;42646;51.910;7.724;2022-11-15T01:18:04;100318.16;;;9.24;94.20
39265;BME280;42646;51.910;7.724;2022-11-15T01:20:50;100310.75;;;9.27;94.49
39265;BME280;42646;51.910;7.724;2022-11-15T01:23:37;100316.75;;;9.29;94.59
39265;BME280;42646;51.910;7.724;2022-11-15T01:26:24;100314.69;;;9.33;94.72
39265;BME280;42646;51.910;7.724;2022-11-15T01:29:10;100304.75;;;9.35;95.02
39265;BME280;42646;51.910;7.724;2022-11-15T01:31:59;100304.59;;;9.36;95.02
39265;BME280;42646;51.910;7.724;2022-11-15T01:34:46;100296.38;;;9.40;95.16
39265;BME280;42646;51.910;7.724;2022-11-15T01:37:32;100296.22;;;9.41;95.00
39265;BME280;42646;51.910;7.724;2022-11-15T01:40:19;100305.75;;;9.44;95.21
39265;BME280;42646;51.910;7.724;2022-11-15T01:43:23;100299.31;;;9.46;95.34
39265;BME280;42646;51.910;7.724;2022-11-15T01:46:22;100306.28;;;9.47;95.80
39265;BME280;42646;51.910;7.724;2022-11-15T01:49:15;100292.03;;;9.48;95.54
39265;BME280;42646;51.910;7.724;2022-11-15T01:52:07;100297.22;;;9.50;95.83
39265;BME280;42646;51.910;7.724;2022-11-15T01:54:58;100291.75;;;9.51;96.22
39265;BME280;42646;51.910;7.724;2022-11-15T01:57:52;100282.66;;;9.54;96.23
39265;BME280;42646;51.910;7.724;2022-11-15T02:00:39;100287.84;;;9.55;96.50
39265;BME280;42646;51.910;7.724;2022-11-15T02:03:33;100287.56;;;9.58;96.96
39265;BME280;42646;51.910;7.724;2022-11-15T02:06:23;100290.06;;;9.60;96.93
39265;BME280;42646;51.910;7.724;2022-11-15T02:09:10;100283.81;;;9.61;97.06
39265;BME280;42646;51.910;7.724;2022-11-15T02:11:59;100287.00;;;9.64;97.20
39265;BME280;42646;51.910;7.724;2022-11-15T02:14:48;100282.50;;;9.65;97.77
39265;BME280;42646;51.910;7.724;2022-11-15T02:17:50;100277.63;;;9.70;98.24
39265;BME280;42646;51.910;7.724;2022-11-15T02:20:43;100273.00;;;9.72;98.67
39265;BME280;42646;51.910;7.724;2022-11-15T02:27:29;100275.78;;;9.80;99.86
39265;BME280;42646;51.910;7.724;2022-11-15T02:30:29;100259.28;;;9.86;100.00
39265;BME280;42646;51.910;7.724;2022-11-15T02:33:26;100257.88;;;9.92;100.00
39265;BME280;42646;51.910;7.724;2022-11-15T02:36:24;100262.47;;;10.00;100.00
39265;BME280;42646;51.910;7.724;2022-11-15T02:39:18;100258.97;;;9.99;100.00
39265;BME280;42646;51.910;7.724;2022-11-15T02:42:12;100259.53;;;10.03;100.00
39265;BME280;42646;51.910;7.724;2022-11-15T02:45:19;100244.94;;;10.07;100.00
39265;BME280;42646;51.910;7.724;2022-11-15T02:48:09;100248.84;;;10.12;100.00
39265;BME280;42646;51.910;7.724;2022-11-15T02:50:59;100239.75;;;10.15;100.00
39265;BME280;42646;51.910;7.724;2022-11-15T02:53:47;100241.97;;;10.20;100.00
39265;BME280;42646;51.910;7.724;2022-11-15T02:56:33;100247.00;;;10.23;100.00
39265;BME280;42646;51.910;7.724;2022-11-15T02:59:36;100246.72;;;10.26;100.00
39265;BME280;42646;51.910;7.724;2022-11-15T03:02:43;100253.28;;;10.31;100.00
39265;BME280;42646;51.910;7.724;2022-11-15T03:05:35;100238.03;;;10.33;100.00
39265;BME280;42646;51.910;7.724;2022-11-15T03:08:29;100245.56;;;10.38;100.00
39265;BME280;42646;51.910;7.724;2022-11-15T03:11:18;100243.44;;;10.41;100.00
39265;BME280;42646;51.910;7.724;2022-11-15T03:14:10;100245.00;;;10.44;100.00
39265;BME280;42646;51.910;7.724;2022-11-15T03:17:03;100244.53;;;10.49;100.00
39265;BME280;42646;51.910;7.724;2022-11-15T03:19:54;100240.59;;;10.53;100.00
39265;BME280;42646;51.910;7.724;2022-11-15T03:22:46;100248.81;;;10.59;100.00
39265;BME280;42646;51.910;7.724;2022-11-15T03:25:38;100251.19;;;10.62;100.00
39265;BME280;42646;51.910;7.724;2022-11-15T03:28:29;100253.25;;;10.68;100.00
39265;BME280;42646;51.910;7.724;2022-11-15T03:31:19;100246.09;;;10.69;100.00
39265;BME280;42646;51.910;7.724;2022-11-15T03:34:32;100250.84;;;10.75;100.00
39265;BME280;42646;51.910;7.724;2022-11-15T03:37:24;100255.00;;;10.78;100.00
39265;BME280;42646;51.910;7.724;2022-11-15T03:40:12;100250.22;;;10.81;100.00
39265;BME280;42646;51.910;7.724;2022-11-15T03:43:03;100247.25;;;10.84;100.00
39265;BME280;42646;51.910;7.724;2022-11-15T03:46:00;100244.97;;;10.89;100.00
39265;BME280;42646;51.910;7.724;2022-11-15T03:48:55;100246.38;;;10.93;100.00
39265;BME280;42646;51.910;7.724;2022-11-15T03:51:42;100243.09;;;11.00;100.00
39265;BME280;42646;51.910;7.724;2022-11-15T03:54:33;100245.44;;;11.03;100.00
39265;BME280;42646;51.910;7.724;2022-11-15T03:57:22;100237.16;;;11.06;100.00
39265;BME280;42646;51.910;7.724;2022-11-15T04:00:09;100240.38;;;11.09;100.00
39265;BME280;42646;51.910;7.724;2022-11-15T04:02:56;100237.41;;;11.12;100.00
39265;BME280;42646;51.910;7.724;2022-11-15T04:05:43;100240.59;;;11.16;100.00
39265;BME280;42646;51.910;7.724;2022-11-15T04:08:54;100232.44;;;11.17;100.00
39265;BME280;42646;51.910;7.724;2022-11-15T04:11:40;100226.81;;;11.20;100.00
39265;BME280;42646;51.910;7.724;2022-11-15T04:14:29;100235.34;;;11.24;100.00
39265;BME280;42646;51.910;7.724;2022-11-15T04:17:15;100237.56;;;11.29;100.00
39265;BME280;42646;51.910;7.724;2022-11-15T04:20:04;100232.22;;;11.29;100.00
39265;BME280;42646;51.910;7.724;2022-11-15T04:23:11;100239.06;;;11.31;100.00
39265;BME280;42646;51.910;7.724;2022-11-15T04:26:18;100235.41;;;11.32;100.00
39265;BME280;42646;51.910;7.724;2022-11-15T04:29:08;100228.94;;;11.35;100.00
39265;BME280;42646;51.910;7.724;2022-11-15T04:32:13;100233.28;;;11.36;100.00
39265;BME280;42646;51.910;7.724;2022-11-15T04:34:59;100234.13;;;11.36;100.00
39265;BME280;42646;51.910;7.724;2022-11-15T04:37:45;100230.31;;;11.39;100.00
39265;BME280;42646;51.910;7.724;2022-11-15T04:40:34;100233.81;;;11.39;100.00
39265;BME280;42646;51.910;7.724;2022-11-15T04:43:22;100227.50;;;11.40;100.00
39265;BME280;42646;51.910;7.724;2022-11-15T04:46:08;100226.34;;;11.43;100.00
39265;BME280;42646;51.910;7.724;2022-11-15T04:48:57;100223.53;;;11.44;100.00
39265;BME280;42646;51.910;7.724;2022-11-15T04:51:43;100225.88;;;11.47;100.00
39265;BME280;42646;51.910;7.724;2022-11-15T04:54:36;100218.72;;;11.48;100.00
39265;BME280;42646;51.910;7.724;2022-11-15T04:57:22;100218.44;;;11.51;100.00
39265;BME280;42646;51.910;7.724;2022-11-15T05:00:11;100220.09;;;11.52;100.00
39265;BME280;42646;51.910;7.724;2022-11-15T05:02:57;100222.44;;;11.55;100.00
39265;BME280;42646;51.910;7.724;2022-11-15T05:06:03;100216.97;;;11.57;100.00
39265;BME280;42646;51.910;7.724;2022-11-15T05:08:49;100223.97;;;11.58;100.00
39265;BME280;42646;51.910;7.724;2022-11-15T05:11:36;100229.31;;;11.58;100.00
39265;BME280;42646;51.910;7.724;2022-11-15T05:14:22;100231.81;;;11.59;100.00
39265;BME280;42646;51.910;7.724;2022-11-15T05:17:13;100228.13;;;11.60;100.00
39265;BME280;42646;51.910;7.724;2022-11-15T05:19:59;100221.97;;;11.60;100.00
39265;BME280;42646;51.910;7.724;2022-11-15T05:22:54;100230.81;;;11.60;100.00
39265;BME280;42646;51.910;7.724;2022-11-15T05:25:42;100225.31;;;11.62;100.00
39265;BME280;42646;51.910;7.724;2022-11-15T05:28:30;100222.66;;;11.62;100.00
39265;BME280;42646;51.910;7.724;2022-11-15T05:31:17;100227.00;;;11.63;100.00
39265;BME280;42646;51.910;7.724;2022-11-15T05:34:04;100219.97;;;11.62;100.00
39265;BME280;42646;51.910;7.724;2022-11-15T05:36:50;100221.97;;;11.60;100.00
39265;BME280;42646;51.910;7.724;2022-11-15T05:39:38;100214.97;;;11.59;100.00
39265;BME280;42646;51.910;7.724;2022-11-15T05:42:25;100222.97;;;11.59;100.00
39265;BME280;42646;51.910;7.724;2022-11-15T05:45:13;100212.47;;;11.57;100.00
39265;BME280;42646;51.910;7.724;2022-11-15T05:48:00;100209.94;;;11.56;100.00
39265;BME280;42646;51.910;7.724;2022-11-15T05:50:51;100213.59;;;11.55;100.00
39265;BME280;42646;51.910;7.724;2022-11-15T05:53:38;100205.78;;;11.53;100.00
39265;BME280;42646;51.910;7.724;2022-11-15T05:56:26;100206.94;;;11.50;100.00
39265;BME280;42646;51.910;7.724;2022-11-15T05:59:13;100206.06;;;11.50;100.00
39265;BME280;42646;51.910;7.724;2022-11-15T06:01:59;100200.09;;;11.48;100.00
39265;BME280;42646;51.910;7.724;2022-11-15T06:04:45;100197.88;;;11.43;100.00
39265;BME280;42646;51.910;7.724;2022-11-15T06:07:32;100198.03;;;11.42;100.00
39265;BME280;42646;51.910;7.724;2022-11-15T06:10:19;100202.81;;;11.38;100.00
39265;BME280;42646;51.910;7.724;2022-11-15T06:13:07;100205.81;;;11.35;100.00
39265;BME280;42646;51.910;7.724;2022-11-15T06:15:55;100205.28;;;11.32;100.00
39265;BME280;42646;51.910;7.724;2022-11-15T06:18:42;100205.59;;;11.29;100.00
39265;BME280;42646;51.910;7.724;2022-11-15T06:21:53;100209.38;;;11.26;100.00
39265;BME280;42646;51.910;7.724;2022-11-15T06:24:39;100212.38;;;11.23;100.00
39265;BME280;42646;51.910;7.724;2022-11-15T06:27:26;100215.03;;;11.23;100.00
39265;BME280;42646;51.910;7.724;2022-11-15T06:30:15;100215.03;;;11.23;100.00
39265;BME280;42646;51.910;7.724;2022-11-15T06:33:03;100212.22;;;11.24;100.00
39265;BME280;42646;51.910;7.724;2022-11-15T06:35:50;100220.03;;;11.26;100.00
39265;BME280;42646;51.910;7.724;2022-11-15T06:38:36;100214.41;;;11.29;100.00
39265;BME280;42646;51.910;7.724;2022-11-15T06:41:23;100216.91;;;11.31;100.00
39265;BME280;42646;51.910;7.724;2022-11-15T06:44:10;100217.63;;;11.33;100.00
39265;BME280;42646;51.910;7.724;2022-11-15T06:46:57;100220.13;;;11.34;100.00
39265;BME280;42646;51.910;7.724;2022-11-15T06:49:45;100223.63;;;11.35;100.00
39265;BME280;42646;51.910;7.724;2022-11-15T06:52:33;100223.31;;;11.38;100.00
39265;BME280;42646;51.910;7.724;2022-11-15T06:55:19;100224.84;;;11.40;100.00
39265;BME280;42646;51.910;7.724;2022-11-15T06:58:07;100227.16;;;11.43;100.00
39265;BME280;42646;51.910;7.724;2022-11-15T07:00:53;100228.72;;;11.46;100.00
39265;BME280;42646;51.910;7.724;2022-11-15T07:03:41;100233.59;;;11.50;100.00
39265;BME280;42646;51.910;7.724;2022-11-15T07:06:28;100234.91;;;11.55;100.00
39265;BME280;42646;51.910;7.724;2022-11-15T07:09:14;100238.28;;;11.57;100.00
39265;BME280;42646;51.910;7.724;2022-11-15T07:12:01;100243.28;;;11.60;100.00
39265;BME280;42646;51.910;7.724;2022-11-15T07:14:53;100244.50;;;11.65;100.00
39265;BME280;42646;51.910;7.724;2022-11-15T07:17:39;100250.50;;;11.67;100.00
39265;BME280;42646;51.910;7.724;2022-11-15T07:20:27;100246.72;;;11.70;100.00
39265;BME280;42646;51.910;7.724;2022-11-15T07:23:14;100249.88;;;11.73;100.00
39265;BME280;42646;51.910;7.724;2022-11-15T07:26:04;100257.56;;;11.76;100.00
39265;BME280;42646;51.910;7.724;2022-11-15T07:28:52;100256.28;;;11.81;100.00
39265;BME280;42646;51.910;7.724;2022-11-15T07:31:39;100252.31;;;11.85;100.00
39265;BME280;42646;51.910;7.724;2022-11-15T07:34:29;100260.41;;;11.93;100.00
39265;BME280;42646;51.910;7.724;2022-11-15T07:37:20;100263.72;;;11.95;100.00
39265;BME280;42646;51.910;7.724;2022-11-15T07:40:08;100265.22;;;11.97;100.00
39265;BME280;42646;51.910;7.724;2022-11-15T07:42:59;100261.25;;;12.01;100.00
39265;BME280;42646;51.910;7.724;2022-11-15T07:45:45;100264.31;;;12.07;100.00
39265;BME280;42646;51.910;7.724;2022-11-15T07:48:31;100268.34;;;12.11;100.00
39265;BME280;42646;51.910;7.724;2022-11-15T07:51:28;100257.03;;;12.17;100.00
39265;BME280;42646;51.910;7.724;2022-11-15T07:54:16;100262.88;;;12.20;100.00
39265;BME280;42646;51.910;7.724;2022-11-15T07:57:02;100268.72;;;12.24;100.00
39265;BME280;42646;51.910;7.724;2022-11-15T07:59:52;100262.09;;;12.28;100.00
39265;BME280;42646;51.910;7.724;2022-11-15T08:02:42;100275.28;;;12.29;100.00
39265;BME280;42646;51.910;7.724;2022-11-15T08:05:30;100264.13;;;12.34;100.00
39265;BME280;42646;51.910;7.724;2022-11-15T08:08:17;100257.63;;;12.37;100.00
39265;BME280;42646;51.910;7.724;2022-11-15T08:11:30;100261.50;;;12.42;100.00
39265;BME280;42646;51.910;7.724;2022-11-15T08:14:16;100259.34;;;12.46;100.00
39265;BME280;42646;51.910;7.724;2022-11-15T08:17:02;100255.19;;;12.51;100.00
39265;BME280;42646;51.910;7.724;2022-11-15T08:19:48;100257.00;;;12.51;100.00
39265;BME280;42646;51.910;7.724;2022-11-15T08:22:37;100258.19;;;12.56;100.00
39265;BME280;42646;51.910;7.724;2022-11-15T08:25:26;100264.72;;;12.62;100.00
39265;BME280;42646;51.910;7.724;2022-11-15T08:28:16;100260.22;;;12.63;100.00
39265;BME280;42646;51.910;7.724;2022-11-15T08:31:03;100254.09;;;12.70;100.00
39265;BME280;42646;51.910;7.724;2022-11-15T08:33:50;100251.09;;;12.73;100.00
39265;BME280;42646;51.910;7.724;2022-11-15T08:36:36;100252.63;;;12.84;100.00
39265;BME280;42646;51.910;7.724;2022-11-15T08:39:30;100251.97;;;12.82;100.00
39265;BME280;42646;51.910;7.724;2022-11-15T08:42:16;100251.78;;;12.83;100.00
39265;BME280;42646;51.910;7.724;2022-11-15T08:45:08;100248.97;;;12.85;100.00
39265;BME280;42646;51.910;7.724;2022-11-15T08:47:54;100245.81;;;12.90;100.00
39265;BME280;42646;51.910;7.724;2022-11-15T08:50:42;100249.31;;;12.90;100.00
39265;BME280;42646;51.910;7.724;2022-11-15T08:53:28;100249.00;;;12.93;100.00
39265;BME280;42646;51.910;7.724;2022-11-15T08:56:14;100238.97;;;12.95;98.88
39265;BME280;42646;51.910;7.724;2022-11-15T08:59:01;100241.00;;;12.93;98.44
39265;BME280;42646;51.910;7.724;2022-11-15T09:01:48;100244.31;;;12.95;97.93
39265;BME280;42646;51.910;7.724;2022-11-15T09:04:36;100242.16;;;12.99;97.37
39265;BME280;42646;51.910;7.724;2022-11-15T09:07:22;100239.16;;;13.02;96.19
39265;BME280;42646;51.910;7.724;2022-11-15T09:10:09;100234.66;;;13.02;96.10
39265;BME280;42646;51.910;7.724;2022-11-15T09:12:56;100243.19;;;13.06;95.93
39265;BME280;42646;51.910;7.724;2022-11-15T09:15:43;100231.31;;;13.08;95.27
39265;BME280;42646;51.910;7.724;2022-11-15T09:18:31;100239.34;;;13.17;94.56
39265;BME280;42646;51.910;7.724;2022-11-15T09:21:19;100237.34;;;13.19;93.48
39265;BME280;42646;51.910;7.724;2022-11-15T09:24:06;100240.41;;;13.24;92.60
39265;BME280;42646;51.910;7.724;2022-11-15T09:26:52;100235.41;;;13.29;91.37
39265;BME280;42646;51.910;7.724;2022-11-15T09:29:39;100238.06;;;13.29;90.66
39265;BME280;42646;51.910;7.724;2022-11-15T09:32:28;100232.38;;;13.32;91.42
39265;BME280;42646;51.910;7.724;2022-11-15T09:35:25;100243.72;;;13.34;90.90
39265;BME280;42646;51.910;7.724;2022-11-15T09:38:12;100232.41;;;13.40;89.76
39265;BME280;42646;51.910;7.724;2022-11-15T09:41:32;100229.53;;;13.42;89.35
39265;BME280;42646;51.910;7.724;2022-11-15T09:44:38;100228.53;;;13.43;89.42
39265;BME280;42646;51.910;7.724;2022-11-15T09:47:39;100231.72;;;13.46;89.13
39265;BME280;42646;51.910;7.724;2022-11-15T09:50:32;100222.69;;;13.47;88.60
39265;BME280;42646;51.910;7.724;2022-11-15T09:53:02;100224.38;;;13.48;88.41
39265;BME280;42646;51.910;7.724;2022-11-15T09:55:37;100229.53;;;13.50;88.52
39265;BME280;42646;51.910;7.724;2022-11-15T09:58:16;100227.03;;;13.56;88.14
39265;BME280;42646;51.910;7.724;2022-11-15T10:00:51;100222.84;;;13.54;88.14
39265;BME280;42646;51.910;7.724;2022-11-15T10:03:26;100227.19;;;13.55;88.05
39265;BME280;42646;51.910;7.724;2022-11-15T10:06:22;100218.16;;;13.56;87.21
39265;BME280;42646;51.910;7.724;2022-11-15T10:08:55;100227.19;;;13.55;87.73
39265;BME280;42646;51.910;7.724;2022-11-15T10:11:29;100222.69;;;13.55;87.50
39265;BME280;42646;51.910;7.724;2022-11-15T10:14:10;100222.50;;;13.57;87.84
39265;BME280;42646;51.910;7.724;2022-11-15T10:20:00;100227.03;;;13.65;85.25
39265;BME280;42646;51.910;7.724;2022-11-15T10:22:38;100228.19;;;13.62;85.29
39265;BME280;42646;51.910;7.724;2022-11-15T10:25:18;100218.16;;;13.72;84.76
39265;BME280;42646;51.910;7.724;2022-11-15T10:27:54;100218.47;;;13.69;83.98
39265;BME280;42646;51.910;7.724;2022-11-15T10:30:34;100214.97;;;13.69;84.19
39265;BME280;42646;51.910;7.724;2022-11-15T10:33:17;100217.50;;;13.70;83.92
39265;BME280;42646;51.910;7.724;2022-11-15T10:36:14;100212.16;;;13.70;83.53
39265;BME280;42646;51.910;7.724;2022-11-15T10:38:56;100215.31;;;13.74;83.57
39265;BME280;42646;51.910;7.724;2022-11-15T10:41:35;100210.28;;;13.79;83.34
39265;BME280;42646;51.910;7.724;2022-11-15T10:44:17;100197.56;;;13.81;83.24
39265;BME280;42646;51.910;7.724;2022-11-15T10:46:47;100205.94;;;13.86;82.72
39265;BME280;42646;51.910;7.724;2022-11-15T10:49:18;100184.38;;;13.87;81.68
39265;BME280;42646;51.910;7.724;2022-11-15T10:51:48;100182.19;;;13.91;80.81
39265;BME280;42646;51.910;7.724;2022-11-15T10:54:23;100178.19;;;13.87;80.93
39265;BME280;42646;51.910;7.724;2022-11-15T10:56:53;100186.53;;;13.92;79.95
39265;BME280;42646;51.910;7.724;2022-11-15T10:59:24;100179.34;;;13.93;79.38
39265;BME280;42646;51.910;7.724;2022-11-15T11:01:54;100176.66;;;13.93;79.80
39265;BME280;42646;51.910;7.724;2022-11-15T11:04:22;100173.97;;;14.01;78.73
39265;BME280;42646;51.910;7.724;2022-11-15T11:06:51;100166.44;;;14.04;77.92
39265;BME280;42646;51.910;7.724;2022-11-15T11:09:28;100165.78;;;14.02;78.13
39265;BME280;42646;51.910;7.724;2022-11-15T11:11:58;100157.75;;;14.02;77.73
39265;BME280;42646;51.910;7.724;2022-11-15T11:14:28;100160.25;;;14.04;76.69
39265;BME280;42646;51.910;7.724;2022-11-15T11:17:03;100156.25;;;14.00;75.70
39265;BME280;42646;51.910;7.724;2022-11-15T11:19:39;100150.22;;;13.98;75.59
39265;BME280;42646;51.910;7.724;2022-11-15T11:22:16;100149.22;;;13.99;75.60
39265;BME280;42646;51.910;7.724;2022-11-15T11:24:53;100144.06;;;13.97;75.76
39265;BME280;42646;51.910;7.724;2022-11-15T11:27:35;100140.38;;;13.98;76.16
39265;BME280;42646;51.910;7.724;2022-11-15T11:30:09;100132.19;;;14.00;75.43
39265;BME280;42646;51.910;7.724;2022-11-15T11:32:48;100133.34;;;14.05;74.42
39265;BME280;42646;51.910;7.724;2022-11-15T11:35:24;100128.16;;;14.04;73.78
39265;BME280;42646;51.910;7.724;2022-11-15T11:38:03;100122.16;;;14.02;74.13
39265;BME280;42646;51.910;7.724;2022-11-15T11:40:40;100133.84;;;14.01;72.41
39265;BME280;42646;51.910;7.724;2022-11-15T11:43:26;100128.50;;;14.01;72.67
39265;BME280;42646;51.910;7.724;2022-11-15T11:46:06;100125.84;;;14.01;72.22
39265;BME280;42646;51.910;7.724;2022-11-15T11:48:41;100128.66;;;13.99;71.54
39265;BME280;42646;51.910;7.724;2022-11-15T11:51:11;100116.75;;;14.10;71.28
39265;BME280;42646;51.910;7.724;2022-11-15T11:53:45;100124.00;;;14.01;70.24
39265;BME280;42646;51.910;7.724;2022-11-15T11:56:20;100120.63;;;13.99;70.24
39265;BME280;42646;51.910;7.724;2022-11-15T11:58:50;100114.31;;;14.00;70.66
39265;BME280;42646;51.910;7.724;2022-11-15T12:01:23;100117.13;;;13.99;70.45
39265;BME280;42646;51.910;7.724;2022-11-15T12:03:55;100109.28;;;13.97;71.36
39265;BME280;42646;51.910;7.724;2022-11-15T12:06:30;100094.75;;;14.00;71.41
39265;BME280;42646;51.910;7.724;2022-11-15T12:09:02;100087.56;;;14.00;71.44
39265;BME280;42646;51.910;7.724;2022-11-15T12:11:47;100085.53;;;14.02;71.08
39265;BME280;42646;51.910;7.724;2022-11-15T12:14:26;100085.19;;;14.05;71.13
39265;BME280;42646;51.910;7.724;2022-11-15T12:16:55;100083.19;;;14.07;71.08
39265;BME280;42646;51.910;7.724;2022-11-15T12:19:22;100077.00;;;14.07;71.36
39265;BME280;42646;51.910;7.724;2022-11-15T12:21:55;100073.81;;;14.11;71.02
39265;BME280;42646;51.910;7.724;2022-11-15T12:24:26;100081.13;;;14.18;70.23
39265;BME280;42646;51.910;7.724;2022-11-15T12:27:00;100069.88;;;14.22;68.86
39265;BME280;42646;51.910;7.724;2022-11-15T12:29:35;100070.41;;;14.18;68.76
39265;BME280;42646;51.910;7.724;2022-11-15T12:32:05;100067.75;;;14.18;69.00
39265;BME280;42646;51.910;7.724;2022-11-15T12:34:43;100066.72;;;14.19;68.60
39265;BME280;42646;51.910;7.724;2022-11-15T12:40:20;100063.53;;;14.23;68.32
39265;BME280;42646;51.910;7.724;2022-11-15T12:46:02;100063.81;;;14.28;66.47
39265;BME280;42646;51.910;7.724;2022-11-15T12:48:50;100061.97;;;14.29;65.73
39265;BME280;42646;51.910;7.724;2022-11-15T12:51:20;100056.34;;;14.24;66.73
39265;BME280;42646;51.910;7.724;2022-11-15T12:53:48;100050.31;;;14.22;66.86
39265;BME280;42646;51.910;7.724;2022-11-15T12:56:23;100051.00;;;14.24;66.12
39265;BME280;42646;51.910;7.724;2022-11-15T12:58:55;100049.84;;;14.18;66.13
39265;BME280;42646;51.910;7.724;2022-11-15T13:04:30;100043.38;;;14.12;65.80
39265;BME280;42646;51.910;7.724;2022-11-15T13:07:00;100041.00;;;14.18;65.30
39265;BME280;42646;51.910;7.724;2022-11-15T13:09:52;100041.34;;;14.14;64.90
39265;BME280;42646;51.910;7.724;2022-11-15T13:12:55;100027.13;;;14.14;65.24
39265;BME280;42646;51.910;7.724;2022-11-15T13:15:35;100030.00;;;14.12;65.80
39265;BME280;42646;51.910;7.724;2022-11-15T13:18:34;100033.31;;;14.14;65.54
39265;BME280;42646;51.910;7.724;2022-11-15T13:21:05;100029.31;;;14.10;65.12
39265;BME280;42646;51.910;7.724;2022-11-15T13:23:59;100026.63;;;14.10;65.28
39265;BME280;42646;51.910;7.724;2022-11-15T13:26:27;100022.78;;;14.13;65.30
39265;BME280;42646;51.910;7.724;2022-11-15T13:28:55;100016.94;;;14.09;65.35
39265;BME280;42646;51.910;7.724;2022-11-15T13:31:26;100007.28;;;14.08;65.67
39265;BME280;42646;51.910;7.724;2022-11-15T13:33:59;100001.09;;;14.08;65.83
39265;BME280;42646;51.910;7.724;2022-11-15T13:36:30;99991.41;;;14.07;65.46
39265;BME280;42646;51.910;7.724;2022-11-15T13:39:03;99988.91;;;14.05;64.87
39265;BME280;42646;51.910;7.724;2022-11-15T13:41:33;99988.53;;;14.08;63.54
39265;BME280;42646;51.910;7.724;2022-11-15T13:44:03;99988.91;;;14.05;62.07
39265;BME280;42646;51.910;7.724;2022-11-15T13:46:31;99992.56;;;14.04;61.19
39265;BME280;42646;51.910;7.724;2022-11-15T13:49:01;99986.41;;;14.04;60.99
39265;BME280;42646;51.910;7.724;2022-11-15T13:51:35;99981.88;;;14.04;61.32
39265;BME280;42646;51.910;7.724;2022-11-15T13:54:09;99977.09;;;14.00;61.65
39265;BME280;42646;51.910;7.724;2022-11-15T13:56:43;99964.53;;;14.00;60.47
39265;BME280;42646;51.910;7.724;2022-11-15T13:59:17;99975.75;;;13.96;60.91
39265;BME280;42646;51.910;7.724;2022-11-15T14:01:46;99974.94;;;13.95;60.66
39265;BME280;42646;51.910;7.724;2022-11-15T14:04:18;99964.41;;;13.94;60.91
39265;BME280;42646;51.910;7.724;2022-11-15T14:06:52;99963.75;;;13.92;61.37
39265;BME280;42646;51.910;7.724;2022-11-15T14:09:30;99962.28;;;13.89;62.11
39265;BME280;42646;51.910;7.724;2022-11-15T14:12:01;99962.78;;;13.84;61.95
39265;BME280;42646;51.910;7.724;2022-11-15T14:14:30;99964.97;;;13.81;62.18
39265;BME280;42646;51.910;7.724;2022-11-15T14:16:59;99955.47;;;13.78;62.05
39265;BME280;42646;51.910;7.724;2022-11-15T14:19:38;99954.16;;;13.74;62.16
39265;BME280;42646;51.910;7.724;2022-11-15T14:22:10;99956.38;;;13.71;61.71
39265;BME280;42646;51.910;7.724;2022-11-15T14:24:39;99950.53;;;13.67;62.42
39265;BME280;42646;51.910;7.724;2022-11-15T14:27:18;99947.34;;;13.63;62.52
39265;BME280;42646;51.910;7.724;2022-11-15T14:29:46;99958.41;;;13.60;63.70
39265;BME280;42646;51.910;7.724;2022-11-15T14:32:18;99953.59;;;13.56;63.96
39265;BME280;42646;51.910;7.724;2022-11-15T14:34:47;99953.13;;;13.52;63.84
39265;BME280;42646;51.910;7.724;2022-11-15T14:37:21;99949.31;;;13.47;63.38